Time;durP1;ratioP1;P1;durP2;ratioP2;P2;SDS_P1;SDS_P2;PMS_P1;PMS_P2;Temp;Humidity;BMP_temperature;BMP_pressure;BME280_temperature;BME280_humidity;BME280_pressure;Samples;Min_cycle;Max_cycle;Signal;HPM_P1;HPM_P2
2023/07/18 00:02:15;;;;;;;9.35;2.83;;;;;;;16.97;100.00;102039.91;5243695;28;20075;-75
2023/07/18 00:04:46;;;;;;;5.28;2.53;;;;;;;16.95;100.00;102031.31;5249580;28;20503;-75
2023/07/18 00:07:17;;;;;;;8.90;2.83;;;;;;;16.95;100.00;102044.53;5247673;28;20130;-75
2023/07/18 00:09:50;;;;;;;5.78;2.42;;;;;;;16.84;100.00;102040.22;5239572;28;20434;-76
2023/07/18 00:12:21;;;;;;;7.32;3.05;;;;;;;16.78;100.00;102039.00;5238265;28;20025;-75
2023/07/18 00:14:56;;;;;;;8.23;3.03;;;;;;;16.86;100.00;102040.94;5246206;28;20493;-75
2023/07/18 00:17:27;;;;;;;5.40;2.60;;;;;;;16.69;100.00;102044.25;5241629;28;20029;-75
2023/07/18 00:19:59;;;;;;;6.28;2.95;;;;;;;16.69;100.00;102047.75;5248542;28;20075;-76
2023/07/18 00:22:30;;;;;;;8.02;3.00;;;;;;;16.62;100.00;102045.78;5245044;28;20051;-75
2023/07/18 00:25:02;;;;;;;8.68;3.20;;;;;;;16.62;100.00;102043.16;5237425;28;20465;-75
2023/07/18 00:27:33;;;;;;;4.93;2.95;;;;;;;16.64;100.00;102036.75;5244671;28;20077;-75
2023/07/18 00:30:14;;;;;;;9.20;3.92;;;;;;;16.86;100.00;102050.66;5240189;28;20083;-75
2023/07/18 00:32:46;;;;;;;7.10;3.95;;;;;;;16.69;100.00;102050.38;5244306;28;20033;-75
2023/07/18 00:35:18;;;;;;;7.20;3.80;;;;;;;16.72;100.00;102050.13;5242529;28;20032;-76
2023/07/18 00:37:49;;;;;;;8.95;4.30;;;;;;;16.73;100.00;102043.00;5247225;28;20030;-75
2023/07/18 00:40:21;;;;;;;7.32;3.67;;;;;;;16.70;100.00;102033.53;5238369;28;20461;-75
2023/07/18 00:42:52;;;;;;;8.35;4.20;;;;;;;16.67;100.00;102033.00;5246573;28;20029;-75
2023/07/18 00:45:23;;;;;;;6.40;3.88;;;;;;;16.70;100.00;102036.16;5244432;28;20443;-74
2023/07/18 00:47:55;;;;;;;6.38;3.70;;;;;;;16.64;100.00;102030.63;5241456;28;20051;-75
2023/07/18 00:50:27;;;;;;;8.63;3.97;;;;;;;16.66;100.00;102040.06;5237183;28;20024;-75
2023/07/18 00:53:00;;;;;;;8.38;4.05;;;;;;;16.62;100.00;102032.56;5244382;28;20466;-76
2023/07/18 00:55:32;;;;;;;7.40;4.28;;;;;;;16.59;100.00;102038.97;5238562;28;20033;-76
2023/07/18 00:58:04;;;;;;;6.95;3.92;;;;;;;16.57;100.00;102026.88;5242157;28;20039;-76
2023/07/18 01:00:35;;;;;;;7.35;3.95;;;;;;;16.56;100.00;102022.56;5238776;28;20437;-77
2023/07/18 01:03:06;;;;;;;9.82;4.10;;;;;;;16.53;100.00;102021.03;5243179;28;20498;-77
2023/07/18 01:05:39;;;;;;;5.57;3.90;;;;;;;16.56;100.00;102019.91;5238802;28;20029;-76
2023/07/18 01:08:10;;;;;;;7.22;4.30;;;;;;;16.45;100.00;102019.09;5241296;28;20096;-75
2023/07/18 01:10:41;;;;;;;8.93;3.95;;;;;;;16.42;100.00;102022.00;5242261;28;20040;-75
2023/07/18 01:13:13;;;;;;;6.75;3.47;;;;;;;16.44;100.00;102020.06;5242449;28;20048;-76
2023/07/18 01:15:44;;;;;;;7.43;4.03;;;;;;;16.36;100.00;102011.97;5236149;28;20033;-76
2023/07/18 01:18:15;;;;;;;7.75;3.53;;;;;;;16.35;100.00;102017.41;5245163;28;20470;-76
2023/07/18 01:20:46;;;;;;;9.60;4.30;;;;;;;16.39;100.00;102011.69;5243427;28;20088;-76
2023/07/18 01:23:18;;;;;;;7.55;3.70;;;;;;;16.32;100.00;102009.75;5233504;28;20045;-75
2023/07/18 01:25:49;;;;;;;6.53;4.03;;;;;;;16.41;100.00;102008.94;5242836;28;20068;-75
2023/07/18 01:28:21;;;;;;;5.85;3.88;;;;;;;16.21;100.00;101997.50;5244224;28;20048;-75
2023/07/18 01:30:52;;;;;;;7.88;3.80;;;;;;;16.27;100.00;102007.53;5239349;28;20032;-76
2023/07/18 01:33:23;;;;;;;6.13;3.42;;;;;;;16.32;100.00;102012.38;5240954;28;20493;-76
2023/07/18 01:35:54;;;;;;;7.28;3.78;;;;;;;16.26;100.00;102001.41;5242556;28;20025;-76
2023/07/18 01:38:29;;;;;;;7.10;3.72;;;;;;;16.22;100.00;102002.66;5242868;28;20083;-76
2023/07/18 01:41:01;;;;;;;6.03;3.45;;;;;;;16.26;100.00;102006.69;5241019;28;20056;-76
2023/07/18 01:43:32;;;;;;;6.68;3.70;;;;;;;16.21;100.00;102005.41;5239079;28;20125;-75
2023/07/18 01:46:03;;;;;;;5.03;3.78;;;;;;;16.20;100.00;101999.31;5240200;28;20504;-75
2023/07/18 01:48:36;;;;;;;7.38;3.60;;;;;;;16.17;100.00;101996.09;5241738;28;20522;-75
2023/07/18 01:51:07;;;;;;;8.23;3.53;;;;;;;16.17;100.00;101994.28;5242000;28;20110;-76
2023/07/18 01:53:39;;;;;;;4.53;3.60;;;;;;;16.13;100.00;101994.72;5236803;28;20116;-76
2023/07/18 01:56:10;;;;;;;5.72;3.53;;;;;;;16.13;100.00;101995.53;5240909;28;20487;-75
2023/07/18 01:58:43;;;;;;;9.05;3.55;;;;;;;16.15;100.00;101998.88;5241054;28;20025;-76
2023/07/18 02:01:15;;;;;;;6.85;3.58;;;;;;;16.07;100.00;101990.81;5242247;28;20032;-76
2023/07/18 02:03:46;;;;;;;5.95;3.08;;;;;;;16.03;100.00;101992.06;5240854;28;20030;-76
2023/07/18 02:06:18;;;;;;;5.80;3.45;;;;;;;15.98;100.00;101984.53;5243776;28;20024;-76
2023/07/18 02:08:49;;;;;;;5.43;3.30;;;;;;;15.97;100.00;101990.78;5237572;28;20013;-75
2023/07/18 02:11:20;;;;;;;5.57;3.30;;;;;;;15.96;100.00;101978.56;5243192;28;20044;-75
2023/07/18 02:13:51;;;;;;;4.72;3.53;;;;;;;15.93;100.00;101978.84;5241633;28;20356;-76
2023/07/18 02:16:23;;;;;;;6.32;3.35;;;;;;;15.93;100.00;101984.13;5243823;28;20126;-74
2023/07/18 02:18:54;;;;;;;6.72;3.60;;;;;;;15.87;100.00;101986.47;5238974;28;20770;-75
2023/07/18 02:21:25;;;;;;;7.47;3.50;;;;;;;15.80;100.00;101965.88;5238820;28;20037;-76
2023/07/18 02:23:57;;;;;;;5.60;3.20;;;;;;;15.84;100.00;101982.31;5241591;28;20060;-75
2023/07/18 02:26:29;;;;;;;7.20;3.60;;;;;;;15.86;100.00;101983.00;5242461;28;20040;-76
2023/07/18 02:29:00;;;;;;;4.80;3.00;;;;;;;15.76;100.00;101976.88;5241060;28;20881;-76
2023/07/18 02:31:32;;;;;;;5.55;3.05;;;;;;;15.72;100.00;101978.94;5241557;28;20029;-76
2023/07/18 02:34:04;;;;;;;5.45;3.03;;;;;;;15.67;100.00;101973.22;5242627;28;20076;-76
2023/07/18 02:36:36;;;;;;;7.60;3.45;;;;;;;15.61;100.00;101979.03;5245180;28;20030;-76
2023/07/18 02:39:10;;;;;;;7.05;3.38;;;;;;;15.62;100.00;101980.69;5240958;28;20036;-75
2023/07/18 02:41:41;;;;;;;4.68;2.90;;;;;;;15.57;100.00;101973.19;5244891;28;20030;-76
2023/07/18 02:44:12;;;;;;;8.00;3.15;;;;;;;15.55;100.00;101985.69;5243891;28;20379;-76
2023/07/18 02:46:43;;;;;;;7.80;3.45;;;;;;;15.47;100.00;101974.13;5241534;28;20107;-76
2023/07/18 02:49:15;;;;;;;6.28;3.25;;;;;;;15.46;100.00;101981.22;5235623;28;20418;-76
2023/07/18 02:51:46;;;;;;;5.50;2.95;;;;;;;15.41;100.00;101974.66;5241044;28;20513;-75
2023/07/18 02:54:17;;;;;;;6.10;3.08;;;;;;;15.45;100.00;101976.03;5242162;28;20494;-76
2023/07/18 02:56:49;;;;;;;4.80;2.90;;;;;;;15.44;100.00;101979.66;5239540;28;20175;-75
2023/07/18 02:59:21;;;;;;;5.47;2.97;;;;;;;15.37;100.00;101979.34;5222401;28;20114;-75
2023/07/18 03:01:59;;;;;;;5.30;3.05;;;;;;;15.32;100.00;101981.56;5238226;28;20034;-75
2023/07/18 03:04:30;;;;;;;7.47;3.13;;;;;;;15.29;100.00;101976.56;5239410;28;20124;-75
2023/07/18 03:07:03;;;;;;;5.80;3.33;;;;;;;15.20;100.00;101967.63;5226421;28;20145;-76
2023/07/18 03:09:35;;;;;;;7.18;3.10;;;;;;;15.29;100.00;101977.38;5242263;28;20052;-76
2023/07/18 03:12:07;;;;;;;7.32;3.25;;;;;;;15.22;100.00;101970.97;5248308;28;20029;-76
2023/07/18 03:14:38;;;;;;;7.80;3.08;;;;;;;15.19;100.00;101973.91;5243969;28;20043;-76
2023/07/18 03:17:09;;;;;;;4.90;3.10;;;;;;;15.18;100.00;101980.13;5245306;28;20017;-76
2023/07/18 03:19:41;;;;;;;5.47;3.47;;;;;;;15.15;100.00;101984.81;5248294;28;20028;-76
2023/07/18 03:22:13;;;;;;;4.80;2.75;;;;;;;15.13;100.00;101979.69;5241161;28;20029;-76
2023/07/18 03:24:44;;;;;;;5.18;2.55;;;;;;;15.12;100.00;101978.03;5244875;28;20077;-76
2023/07/18 03:27:15;;;;;;;5.25;2.85;;;;;;;15.07;100.00;101972.28;5242012;28;20048;-75
2023/07/18 03:29:47;;;;;;;4.32;2.70;;;;;;;15.09;100.00;101978.28;5241445;28;20485;-76
2023/07/18 03:32:18;;;;;;;6.68;3.20;;;;;;;15.07;100.00;101977.56;5242387;28;20021;-75
2023/07/18 03:34:50;;;;;;;4.57;2.78;;;;;;;15.02;100.00;101962.13;5246045;28;20024;-75
2023/07/18 03:37:21;;;;;;;8.00;3.92;;;;;;;14.96;100.00;101969.72;5242825;28;20029;-77
2023/07/18 03:39:52;;;;;;;5.68;3.03;;;;;;;14.97;100.00;101966.97;5246102;28;20040;-76
2023/07/18 03:42:24;;;;;;;6.78;2.97;;;;;;;14.90;100.00;101976.38;5239480;28;20116;-76
2023/07/18 03:44:55;;;;;;;5.47;3.08;;;;;;;14.91;100.00;101975.41;5237607;28;20336;-76
2023/07/18 03:47:26;;;;;;;6.45;3.10;;;;;;;14.93;100.00;101968.22;5238432;28;20328;-75
2023/07/18 03:49:57;;;;;;;5.90;3.25;;;;;;;14.89;100.00;101971.22;5242411;28;20055;-76
2023/07/18 03:52:29;;;;;;;7.90;3.10;;;;;;;14.82;100.00;101973.56;5243659;28;20463;-74
2023/07/18 03:55:00;;;;;;;5.47;2.80;;;;;;;14.72;100.00;101955.03;5239226;28;20078;-76
2023/07/18 03:57:32;;;;;;;5.05;2.97;;;;;;;14.83;100.00;101977.88;5241390;28;20022;-76
2023/07/18 04:00:12;;;;;;;6.35;3.00;;;;;;;14.82;100.00;101977.03;5239066;28;20151;-76
2023/07/18 04:02:48;;;;;;;5.38;2.70;;;;;;;14.90;100.00;101972.91;5247592;28;20681;-75
2023/07/18 04:05:20;;;;;;;8.32;3.40;;;;;;;14.77;100.00;101979.22;5234896;28;20092;-75
2023/07/18 04:07:51;;;;;;;6.43;3.17;;;;;;;14.75;100.00;101967.97;5236899;28;20557;-75
2023/07/18 04:10:22;;;;;;;4.18;2.80;;;;;;;14.74;100.00;101954.91;5241077;28;20080;-75
2023/07/18 04:12:54;;;;;;;4.47;2.88;;;;;;;14.73;100.00;101950.59;5241006;28;20021;-74
2023/07/18 04:15:25;;;;;;;6.18;2.92;;;;;;;14.65;100.00;101945.94;5237892;28;20021;-75
2023/07/18 04:17:56;;;;;;;5.72;3.15;;;;;;;14.71;100.00;101956.00;5247254;28;20068;-75
2023/07/18 04:20:28;;;;;;;6.93;2.95;;;;;;;14.73;100.00;101948.78;5239625;28;20112;-75
2023/07/18 04:22:59;;;;;;;3.95;2.58;;;;;;;14.69;100.00;101952.63;5238926;28;20449;-75
2023/07/18 04:25:34;;;;;;;4.90;2.67;;;;;;;14.69;100.00;101934.19;5240850;28;20483;-74
2023/07/18 04:28:06;;;;;;;4.22;2.80;;;;;;;14.70;100.00;101935.88;5240936;28;20029;-75
2023/07/18 04:30:37;;;;;;;6.47;2.80;;;;;;;14.67;100.00;101936.13;5241608;28;20082;-75
2023/07/18 04:33:12;;;;;;;6.18;2.55;;;;;;;14.74;100.00;101941.72;5245377;28;20021;-75
2023/07/18 04:35:45;;;;;;;7.13;2.95;;;;;;;14.68;100.00;101937.78;5243565;28;20052;-75
2023/07/18 04:38:16;;;;;;;6.20;3.00;;;;;;;14.77;100.00;101954.63;5245698;28;20024;-75
2023/07/18 04:40:47;;;;;;;5.47;2.70;;;;;;;14.72;100.00;101941.84;5240615;28;20029;-75
2023/07/18 04:43:19;;;;;;;4.85;2.40;;;;;;;14.72;100.00;101947.13;5240487;28;20875;-74
2023/07/18 04:45:50;;;;;;;6.28;2.92;;;;;;;14.73;100.00;101948.78;5243910;28;20570;-75
2023/07/18 04:48:22;;;;;;;5.47;2.95;;;;;;;14.72;100.00;101941.00;5240307;28;20064;-74
2023/07/18 04:50:58;;;;;;;4.85;2.45;;;;;;;14.82;100.00;101937.47;5242014;28;20379;-75
2023/07/18 04:53:31;;;;;;;4.80;2.50;;;;;;;14.75;100.00;101943.38;5245315;28;20025;-74
2023/07/18 04:56:04;;;;;;;7.20;2.63;;;;;;;14.84;100.00;101939.94;5243182;28;20082;-75
2023/07/18 04:58:35;;;;;;;3.80;2.15;;;;;;;14.85;100.00;101936.38;5239985;28;20029;-75
2023/07/18 05:01:07;;;;;;;4.43;2.60;;;;;;;14.90;100.00;101936.81;5236317;28;20029;-76
2023/07/18 05:03:39;;;;;;;4.55;2.50;;;;;;;14.96;100.00;101935.44;5236513;28;20083;-75
2023/07/18 05:06:11;;;;;;;5.00;2.47;;;;;;;14.94;100.00;101934.72;5243126;28;20029;-75
2023/07/18 05:08:42;;;;;;;4.95;2.55;;;;;;;14.84;100.00;101919.69;5244651;28;20025;-74
2023/07/18 05:11:13;;;;;;;12.10;2.60;;;;;;;15.04;100.00;101935.63;5247092;28;20478;-74
2023/07/18 05:13:44;;;;;;;5.10;2.35;;;;;;;15.01;100.00;101933.25;5238757;28;20068;-75
2023/07/18 05:16:16;;;;;;;5.80;2.30;;;;;;;15.10;100.00;101948.28;5238669;28;20498;-75
2023/07/18 05:18:47;;;;;;;5.05;2.50;;;;;;;15.13;100.00;101936.63;5241065;28;20131;-74
2023/07/18 05:21:18;;;;;;;6.57;2.45;;;;;;;15.16;100.00;101937.19;5239862;28;20025;-74
2023/07/18 05:23:50;;;;;;;5.35;2.40;;;;;;;15.22;100.00;101933.16;5241286;28;20533;-75
2023/07/18 05:26:21;;;;;;;7.68;2.60;;;;;;;15.27;100.00;101939.72;5245362;28;20024;-74
2023/07/18 05:28:53;;;;;;;4.78;2.60;;;;;;;15.31;100.00;101941.13;5242852;28;20041;-75
2023/07/18 05:31:25;;;;;;;5.70;2.58;;;;;;;15.34;100.00;101934.72;5244317;28;20568;-75
2023/07/18 05:33:56;;;;;;;3.28;2.30;;;;;;;15.36;100.00;101930.16;5237778;28;20029;-75
2023/07/18 05:36:27;;;;;;;6.68;3.25;;;;;;;15.43;100.00;101931.31;5240829;28;20030;-75
2023/07/18 05:39:00;;;;;;;5.47;2.90;;;;;;;15.45;100.00;101926.69;5238686;28;20037;-75
2023/07/18 05:41:31;;;;;;;5.30;3.10;;;;;;;15.50;100.00;101929.78;5238870;28;20487;-75
2023/07/18 05:44:02;;;;;;;11.57;2.83;;;;;;;15.64;100.00;101941.75;5234658;28;20029;-75
2023/07/18 05:46:33;;;;;;;4.70;2.60;;;;;;;15.68;100.00;101932.66;5240192;28;20057;-75
2023/07/18 05:49:05;;;;;;;5.03;2.38;;;;;;;15.75;100.00;101939.03;5241147;28;20060;-74
2023/07/18 05:51:36;;;;;;;6.68;2.42;;;;;;;15.80;100.00;101936.00;5236661;28;20029;-75
2023/07/18 05:54:07;;;;;;;6.47;3.03;;;;;;;15.90;100.00;101942.09;5233366;28;20025;-75
2023/07/18 05:56:39;;;;;;;7.22;2.50;;;;;;;15.95;100.00;101939.06;5237182;28;20025;-76
2023/07/18 05:59:10;;;;;;;5.55;2.30;;;;;;;16.01;100.00;101946.44;5236603;28;20033;-75
2023/07/18 06:01:41;;;;;;;5.60;2.38;;;;;;;16.08;100.00;101946.72;5235565;28;20186;-75
2023/07/18 06:04:15;;;;;;;5.25;2.45;;;;;;;16.14;100.00;101941.72;5232676;28;20017;-74
2023/07/18 06:06:46;;;;;;;4.00;2.45;;;;;;;16.16;100.00;101952.97;5238219;28;20029;-75
2023/07/18 06:09:18;;;;;;;4.15;2.25;;;;;;;16.26;100.00;101952.97;5238146;28;20052;-75
2023/07/18 06:11:50;;;;;;;6.60;2.33;;;;;;;16.37;100.00;101939.59;5241450;28;20467;-75
2023/07/18 06:14:21;;;;;;;7.57;2.70;;;;;;;16.43;100.00;101944.31;5241632;28;20087;-75
2023/07/18 06:16:52;;;;;;;6.55;2.78;;;;;;;16.50;100.00;101945.41;5234246;28;20033;-75
2023/07/18 06:19:24;;;;;;;4.63;2.00;;;;;;;16.62;100.00;101953.19;5235231;28;20082;-74
2023/07/18 06:21:55;;;;;;;6.80;2.53;;;;;;;16.68;100.00;101944.69;5233380;28;20057;-74
2023/07/18 06:24:26;;;;;;;7.07;2.33;;;;;;;16.82;100.00;101946.06;5238019;28;20042;-74
2023/07/18 06:26:58;;;;;;;5.70;2.00;;;;;;;16.89;100.00;101939.22;5235973;28;20506;-75
2023/07/18 06:29:29;;;;;;;5.93;2.33;;;;;;;17.08;100.00;101944.44;5235354;28;20022;-76
2023/07/18 06:32:02;;;;;;;4.72;2.22;;;;;;;17.24;100.00;101951.78;5235627;28;20031;-76
2023/07/18 06:34:40;;;;;;;;;;;;;;;17.93;100.00;101953.06;5239313;28;20029;-77
2023/07/18 06:37:11;;;;;;;5.60;2.45;;;;;;;17.43;100.00;101946.38;5237258;28;20302;-75
2023/07/18 06:39:43;;;;;;;5.07;1.95;;;;;;;17.58;100.00;101943.19;5238076;28;20043;-76
2023/07/18 06:42:14;;;;;;;6.72;2.60;;;;;;;17.70;100.00;101948.16;5236034;28;20132;-77
2023/07/18 06:44:46;;;;;;;6.00;2.15;;;;;;;17.87;100.00;101948.34;5242507;28;20509;-77
2023/07/18 06:47:18;;;;;;;3.67;1.70;;;;;;;17.90;100.00;101940.09;5237144;28;20033;-76
2023/07/18 06:49:49;;;;;;;4.20;1.70;;;;;;;18.03;100.00;101935.22;5238226;28;20052;-76
2023/07/18 06:52:20;;;;;;;5.40;2.00;;;;;;;18.21;100.00;101946.66;5238066;28;20104;-77
2023/07/18 06:54:55;;;;;;;3.30;1.10;;;;;;;18.40;95.95;101939.50;5238136;28;20029;-76
2023/07/18 06:57:26;;;;;;;4.75;1.58;;;;;;;18.47;95.31;101943.22;5229229;28;20073;-76
2023/07/18 06:59:57;;;;;;;3.30;1.58;;;;;;;18.55;92.70;101945.09;5233899;28;20120;-77
2023/07/18 07:02:29;;;;;;;3.35;1.35;;;;;;;18.67;92.42;101928.75;5235781;28;20024;-74
2023/07/18 07:05:00;;;;;;;3.00;1.30;;;;;;;18.77;89.03;101927.84;5240386;28;20031;-75
2023/07/18 07:07:32;;;;;;;3.47;1.05;;;;;;;18.90;89.00;101938.84;5234429;28;20593;-77
2023/07/18 07:10:03;;;;;;;4.05;1.50;;;;;;;18.98;87.23;101940.72;5241209;28;20029;-76
2023/07/18 07:12:35;;;;;;;3.08;1.45;;;;;;;19.09;87.11;101940.44;5235781;28;20082;-76
2023/07/18 07:15:06;;;;;;;5.45;1.15;;;;;;;19.22;86.51;101942.69;5235882;28;20471;-77
2023/07/18 07:17:38;;;;;;;4.80;1.48;;;;;;;19.29;82.64;101941.88;5234083;28;20048;-76
2023/07/18 07:20:12;;;;;;;3.25;1.15;;;;;;;19.50;83.97;101938.78;5240709;28;20065;-76
2023/07/18 07:22:46;;;;;;;4.30;1.15;;;;;;;19.67;84.83;101926.41;5221904;28;20032;-76
2023/07/18 07:25:17;;;;;;;4.07;1.08;;;;;;;19.81;83.92;101939.06;5236021;28;20045;-77
2023/07/18 07:27:48;;;;;;;3.97;1.05;;;;;;;19.89;78.38;101924.94;5236839;28;20029;-76
2023/07/18 07:30:20;;;;;;;4.23;0.90;;;;;;;20.06;74.26;101933.75;5230077;28;20029;-76
2023/07/18 07:32:52;;;;;;;3.55;1.08;;;;;;;20.06;75.35;101925.75;5236004;28;20070;-76
2023/07/18 07:35:23;;;;;;;3.67;1.00;;;;;;;20.10;75.27;101921.78;5237016;28;20033;-76
2023/07/18 07:37:54;;;;;;;5.47;1.67;;;;;;;20.31;70.32;101929.25;5234157;28;20021;-76
2023/07/18 07:40:26;;;;;;;4.97;1.20;;;;;;;20.38;70.62;101919.56;5225231;28;20214;-76
2023/07/18 07:42:57;;;;;;;2.07;0.83;;;;;;;20.46;68.28;101910.78;5237995;28;20082;-75
2023/07/18 07:45:29;;;;;;;3.15;0.70;;;;;;;20.46;65.95;101922.25;5233501;28;20057;-76
2023/07/18 07:48:00;;;;;;;5.63;1.27;;;;;;;20.60;64.80;101940.22;5231843;28;20386;-76
2023/07/18 07:50:33;;;;;;;5.73;1.40;;;;;;;20.74;65.18;101930.69;5233030;28;20091;-76
2023/07/18 07:53:05;;;;;;;2.88;1.08;;;;;;;20.86;64.61;101928.50;5244311;28;20107;-76
2023/07/18 07:55:39;;;;;;;3.67;1.20;;;;;;;21.03;63.67;101919.47;5237097;28;20029;-76
2023/07/18 07:58:10;;;;;;;3.13;1.17;;;;;;;21.23;62.09;101929.69;5239452;28;20100;-76
2023/07/18 08:00:41;;;;;;;2.43;0.77;;;;;;;21.41;61.49;101930.31;5236893;28;20036;-75
2023/07/18 08:03:16;;;;;;;2.87;1.10;;;;;;;21.50;62.04;101929.25;5240748;28;20041;-75
2023/07/18 08:05:47;;;;;;;2.33;0.88;;;;;;;21.67;61.65;101930.00;5239301;28;20037;-75
2023/07/18 08:08:19;;;;;;;4.90;0.97;;;;;;;21.70;57.21;101926.94;5239585;28;20025;-76
2023/07/18 08:10:50;;;;;;;2.50;0.90;;;;;;;21.78;59.25;101916.25;5237264;28;20024;-76
2023/07/18 08:13:21;;;;;;;3.20;1.40;;;;;;;21.89;57.37;101911.47;5238198;28;20078;-76
2023/07/18 08:15:53;;;;;;;2.77;0.70;;;;;;;22.17;58.91;101912.63;5232412;28;20566;-75
2023/07/18 08:18:24;;;;;;;2.20;0.67;;;;;;;22.34;53.69;101921.28;5236454;28;20021;-75
2023/07/18 08:20:56;;;;;;;2.30;0.80;;;;;;;22.40;51.63;101911.75;5235280;28;20026;-76
2023/07/18 08:23:27;;;;;;;3.10;0.80;;;;;;;22.34;50.85;101919.44;5236836;28;20041;-75
2023/07/18 08:25:59;;;;;;;2.37;0.83;;;;;;;22.29;48.79;101918.34;5235128;28;20493;-75
2023/07/18 08:28:30;;;;;;;3.33;0.67;;;;;;;22.48;49.69;101915.16;5260611;28;20024;-76
2023/07/18 08:31:04;;;;;;;3.20;0.80;;;;;;;22.61;49.55;101908.34;5257540;28;20063;-76
2023/07/18 08:33:36;;;;;;;1.85;0.70;;;;;;;22.54;48.69;101903.75;5240840;28;20025;-76
2023/07/18 08:36:07;;;;;;;2.90;0.80;;;;;;;22.63;47.00;101901.81;5257653;28;20046;-75
2023/07/18 08:38:38;;;;;;;2.60;0.70;;;;;;;22.96;48.12;101907.63;5256954;28;20503;-75
2023/07/18 08:41:10;;;;;;;2.07;0.70;;;;;;;23.12;45.86;101905.78;5260651;28;20569;-77
2023/07/18 08:43:41;;;;;;;1.93;0.70;;;;;;;22.99;45.21;101896.56;5260846;28;20043;-77
2023/07/18 08:46:14;;;;;;;1.53;0.50;;;;;;;22.92;45.61;101901.00;5263589;28;20474;-76
2023/07/18 08:48:46;;;;;;;4.55;0.70;;;;;;;22.91;42.83;101903.81;5243923;28;20076;-76
2023/07/18 08:51:17;;;;;;;1.70;0.57;;;;;;;22.88;42.30;101893.50;5255891;28;20029;-76
2023/07/18 08:53:49;;;;;;;2.10;0.63;;;;;;;23.09;43.81;101900.78;5260861;28;20376;-76
2023/07/18 08:56:20;;;;;;;2.43;0.50;;;;;;;22.95;42.21;101881.91;5260623;28;20062;-76
2023/07/18 08:58:53;;;;;;;1.50;0.50;;;;;;;23.38;43.14;101897.22;5260005;28;20029;-76
2023/07/18 09:01:24;;;;;;;1.75;0.60;;;;;;;23.50;44.81;101885.00;5260329;28;20437;-78
2023/07/18 09:03:55;;;;;;;1.80;0.70;;;;;;;23.69;42.69;101881.72;5242888;28;20117;-76
2023/07/18 09:06:27;;;;;;;2.30;0.70;;;;;;;23.82;43.97;101882.88;5253198;28;20333;-77
2023/07/18 09:08:58;;;;;;;2.03;0.90;;;;;;;23.88;42.84;101879.44;5259239;28;20039;-76
2023/07/18 09:11:29;;;;;;;2.33;0.90;;;;;;;24.02;43.49;101875.84;5237901;28;20430;-75
2023/07/18 09:14:00;;;;;;;4.67;0.83;;;;;;;24.11;43.83;101871.16;5258582;28;20107;-76
2023/07/18 09:16:33;;;;;;;2.63;1.10;;;;;;;24.20;42.60;101876.16;5257459;28;20036;-76
2023/07/18 09:19:04;;;;;;;4.65;1.23;;;;;;;24.21;41.36;101867.13;5253596;28;20108;-76
2023/07/18 09:21:35;;;;;;;2.23;0.53;;;;;;;24.56;42.16;101855.63;5233447;28;20073;-76
2023/07/18 09:24:07;;;;;;;2.47;0.70;;;;;;;24.67;43.24;101847.84;5254431;28;20033;-77
2023/07/18 09:26:38;;;;;;;1.90;0.60;;;;;;;24.46;41.12;101851.44;5261746;28;20028;-74
2023/07/18 09:29:11;;;;;;;3.43;0.63;;;;;;;24.45;40.67;101849.78;5237861;28;20066;-75
2023/07/18 09:31:44;;;;;;;3.00;1.00;;;;;;;24.68;43.22;101859.41;5265110;28;20516;-76
2023/07/18 09:34:16;;;;;;;4.05;0.80;;;;;;;24.66;41.95;101838.16;5259393;28;20066;-76
2023/07/18 09:37:03;;;;;;;2.70;0.77;;;;;;;25.15;41.48;101847.00;5255600;28;20123;-75
2023/07/18 09:39:37;;;;;;;1.90;0.90;;;;;;;25.20;40.27;101844.56;5256371;28;20024;-76
2023/07/18 09:42:09;;;;;;;2.63;0.80;;;;;;;25.31;38.69;101843.97;5259316;28;20036;-77
2023/07/18 09:44:41;;;;;;;;;;;;;;;26.23;40.81;101853.09;5241268;28;20048;-76
2023/07/18 09:47:13;;;;;;;3.70;0.73;;;;;;;25.17;40.83;101848.47;5241231;28;20093;-76
2023/07/18 09:49:45;;;;;;;3.22;0.70;;;;;;;25.05;39.31;101851.94;5257911;28;20045;-76
2023/07/18 09:52:22;;;;;;;2.72;0.80;;;;;;;24.99;40.98;101845.50;5241555;28;20031;-76
2023/07/18 09:54:54;;;;;;;5.28;0.98;;;;;;;24.55;40.47;101838.72;5259501;28;20033;-77
2023/07/18 09:57:26;;;;;;;3.45;0.90;;;;;;;24.75;40.17;101850.34;5257620;28;20035;-76
2023/07/18 10:00:03;;;;;;;2.97;0.60;;;;;;;25.12;41.14;101840.22;5256973;28;20029;-76
2023/07/18 10:02:35;;;;;;;3.50;0.70;;;;;;;25.10;39.19;101836.06;5259580;28;20074;-76
2023/07/18 10:05:09;;;;;;;2.50;0.73;;;;;;;25.31;38.14;101843.97;5257241;28;20060;-77
2023/07/18 10:07:43;;;;;;;2.47;1.05;;;;;;;25.21;37.85;101832.81;5257449;28;20147;-75
2023/07/18 10:10:14;;;;;;;;;;;;;;;26.21;38.60;101828.28;5257179;28;20033;-76
2023/07/18 10:12:58;;;;;;;1.97;0.77;;;;;;;25.59;37.55;101830.38;5254094;28;19936;-77
2023/07/18 10:15:30;;;;;;;1.98;0.88;;;;;;;25.44;37.93;101819.84;5256274;28;20283;-77
2023/07/18 10:18:16;;;;;;;2.35;0.80;;;;;;;25.78;38.15;101817.16;5256808;28;20025;-77
2023/07/18 10:20:58;;;;;;;3.53;0.73;;;;;;;25.45;39.92;101797.34;5257055;28;20067;-77
2023/07/18 10:23:42;;;;;;;2.55;1.15;;;;;;;25.40;38.42;101794.44;5255475;28;20044;-76
2023/07/18 10:26:13;;;;;;;2.58;0.73;;;;;;;25.23;39.52;101806.63;5253174;28;20541;-76
2023/07/18 10:28:46;;;;;;;2.80;0.77;;;;;;;25.03;38.47;101794.97;5252835;28;20021;-77
2023/07/18 10:31:33;;;;;;;3.03;0.80;;;;;;;25.44;39.68;101794.88;5254658;28;20504;-76
2023/07/18 10:34:15;;;;;;;2.40;0.75;;;;;;;25.46;40.12;101803.56;5245776;28;20047;-76
2023/07/18 10:36:56;;;;;;;2.08;0.80;;;;;;;25.63;39.48;101794.03;5258007;28;20036;-77
2023/07/18 10:39:41;;;;;;;2.47;0.63;;;;;;;25.57;38.88;101804.78;5254139;28;20040;-76
2023/07/18 10:42:29;;;;;;;1.98;0.80;;;;;;;25.80;38.95;101786.44;5255695;28;20090;-76
2023/07/18 10:45:05;;;;;;;2.65;0.88;;;;;;;25.62;37.89;101802.31;5254481;28;20028;-77
2023/07/18 10:47:37;;;;;;;3.33;1.02;;;;;;;25.61;38.75;101789.91;5240315;28;20063;-76
2023/07/18 10:50:09;;;;;;;3.53;0.60;;;;;;;25.87;38.77;101794.47;5258297;28;20025;-76
2023/07/18 10:52:40;;;;;;;2.10;0.70;;;;;;;25.67;37.92;101781.84;5236293;28;20032;-76
2023/07/18 10:55:15;;;;;;;5.37;1.13;;;;;;;25.74;38.34;101784.53;5238475;28;20282;-76
2023/07/18 10:57:46;;;;;;;2.47;0.90;;;;;;;25.72;37.96;101784.75;5253313;28;20091;-76
2023/07/18 11:00:18;;;;;;;2.33;0.70;;;;;;;25.77;37.73;101794.06;5256169;28;20039;-76
2023/07/18 11:02:50;;;;;;;2.38;0.88;;;;;;;25.83;37.85;101777.94;5250929;28;20116;-76
2023/07/18 11:05:24;;;;;;;2.83;0.83;;;;;;;26.04;39.11;101776.06;5256372;28;20031;-75
2023/07/18 11:07:56;;;;;;;3.28;0.90;;;;;;;25.93;38.39;101780.22;5257475;28;20032;-75
2023/07/18 11:10:27;;;;;;;3.83;0.93;;;;;;;26.31;37.06;101783.00;5254653;28;20029;-75
2023/07/18 11:12:58;;;;;;;4.17;1.30;;;;;;;26.24;37.27;101784.06;5257383;28;20078;-77
2023/07/18 11:15:30;;;;;;;5.13;0.80;;;;;;;26.35;37.01;101780.72;5238365;28;20151;-77
2023/07/18 11:18:01;;;;;;;5.87;1.10;;;;;;;26.24;36.95;101770.63;5254476;28;20063;-76
2023/07/18 11:20:32;;;;;;;6.37;0.90;;;;;;;26.51;36.76;101777.59;5258725;28;20395;-77
2023/07/18 11:23:04;;;;;;;2.90;1.00;;;;;;;26.54;35.78;101762.91;5254677;28;21077;-77
2023/07/18 11:25:36;;;;;;;4.07;0.90;;;;;;;26.69;36.63;101766.16;5257254;28;20046;-75
2023/07/18 11:28:07;;;;;;;2.33;0.80;;;;;;;26.67;34.60;101763.69;5260873;28;20024;-76
2023/07/18 11:30:38;;;;;;;2.77;0.87;;;;;;;26.86;35.10;101750.34;5244955;28;20090;-76
2023/07/18 11:33:13;;;;;;;2.77;0.80;;;;;;;26.99;34.74;101752.13;5256859;28;20025;-76
2023/07/18 11:35:45;;;;;;;2.15;0.68;;;;;;;26.86;35.02;101759.22;5254977;28;20041;-77
2023/07/18 11:38:17;;;;;;;1.52;0.60;;;;;;;27.06;35.12;101763.66;5244786;28;20454;-76
2023/07/18 11:40:49;;;;;;;2.58;0.93;;;;;;;27.38;34.07;101751.84;5262605;28;20062;-78
2023/07/18 11:43:20;;;;;;;3.13;0.70;;;;;;;27.08;33.49;101740.03;5259616;28;20960;-76
2023/07/18 11:45:55;;;;;;;4.37;0.70;;;;;;;27.55;33.84;101745.91;5263313;28;20072;-77